sensor_id;sensor_type;location;lat;lon;timestamp;temperature;humidity
14737;DHT22;7459;53.590;10.062;2023-02-28T00:01:13;4.70;99.90
14737;DHT22;7459;53.590;10.062;2023-02-28T00:03:40;4.70;99.90
14737;DHT22;7459;53.590;10.062;2023-02-28T00:06:07;4.70;99.90
14737;DHT22;7459;53.590;10.062;2023-02-28T00:08:35;4.70;99.90
14737;DHT22;7459;53.590;10.062;2023-02-28T00:11:10;4.60;99.90
14737;DHT22;7459;53.590;10.062;2023-02-28T00:13:40;4.60;99.90
14737;DHT22;7459;53.590;10.062;2023-02-28T00:16:13;4.60;99.90
14737;DHT22;7459;53.590;10.062;2023-02-28T00:18:41;4.50;99.90
14737;DHT22;7459;53.590;10.062;2023-02-28T00:21:07;4.50;99.90
14737;DHT22;7459;53.590;10.062;2023-02-28T00:23:33;4.50;99.90
14737;DHT22;7459;53.590;10.062;2023-02-28T00:25:59;4.40;99.90
14737;DHT22;7459;53.590;10.062;2023-02-28T00:28:25;4.40;99.90
14737;DHT22;7459;53.590;10.062;2023-02-28T00:30:51;4.40;99.90
14737;DHT22;7459;53.590;10.062;2023-02-28T00:33:17;4.30;99.90
14737;DHT22;7459;53.590;10.062;2023-02-28T00:35:42;4.30;99.90
14737;DHT22;7459;53.590;10.062;2023-02-28T00:38:11;4.30;99.90
14737;DHT22;7459;53.590;10.062;2023-02-28T00:40:38;4.30;99.90
14737;DHT22;7459;53.590;10.062;2023-02-28T00:43:04;4.30;99.90
14737;DHT22;7459;53.590;10.062;2023-02-28T00:45:30;4.30;99.90
14737;DHT22;7459;53.590;10.062;2023-02-28T00:47:55;4.30;99.90
14737;DHT22;7459;53.590;10.062;2023-02-28T00:50:21;4.20;99.90
14737;DHT22;7459;53.590;10.062;2023-02-28T00:52:48;4.20;99.90
14737;DHT22;7459;53.590;10.062;2023-02-28T00:55:13;4.20;99.90
14737;DHT22;7459;53.590;10.062;2023-02-28T00:57:39;4.20;99.90
14737;DHT22;7459;53.590;10.062;2023-02-28T01:00:06;4.20;99.90
14737;DHT22;7459;53.590;10.062;2023-02-28T01:02:33;4.20;99.90
14737;DHT22;7459;53.590;10.062;2023-02-28T01:04:58;4.20;99.90
14737;DHT22;7459;53.590;10.062;2023-02-28T01:07:24;4.10;99.90
14737;DHT22;7459;53.590;10.062;2023-02-28T01:09:50;4.10;99.90
14737;DHT22;7459;53.590;10.062;2023-02-28T01:12:16;4.10;99.90
14737;DHT22;7459;53.590;10.062;2023-02-28T01:14:42;4.10;99.90
14737;DHT22;7459;53.590;10.062;2023-02-28T01:17:08;4.10;99.90
14737;DHT22;7459;53.590;10.062;2023-02-28T01:19:34;4.10;99.90
14737;DHT22;7459;53.590;10.062;2023-02-28T01:22:04;4.10;99.90
14737;DHT22;7459;53.590;10.062;2023-02-28T01:24:31;4.10;99.90
14737;DHT22;7459;53.590;10.062;2023-02-28T01:26:57;4.10;99.90
14737;DHT22;7459;53.590;10.062;2023-02-28T01:29:22;4.10;99.90
14737;DHT22;7459;53.590;10.062;2023-02-28T01:31:48;4.10;99.90
14737;DHT22;7459;53.590;10.062;2023-02-28T01:34:14;4.00;99.90
14737;DHT22;7459;53.590;10.062;2023-02-28T01:36:39;4.00;99.90
14737;DHT22;7459;53.590;10.062;2023-02-28T01:39:05;4.00;99.90
14737;DHT22;7459;53.590;10.062;2023-02-28T01:41:33;4.00;99.90
14737;DHT22;7459;53.590;10.062;2023-02-28T01:46:25;4.10;99.90
14737;DHT22;7459;53.590;10.062;2023-02-28T01:48:59;4.10;99.90
14737;DHT22;7459;53.590;10.062;2023-02-28T01:51:54;4.00;99.90
14737;DHT22;7459;53.590;10.062;2023-02-28T01:54:25;4.00;99.90
14737;DHT22;7459;53.590;10.062;2023-02-28T01:56:56;4.00;99.90
14737;DHT22;7459;53.590;10.062;2023-02-28T01:59:42;4.00;99.90
14737;DHT22;7459;53.590;10.062;2023-02-28T02:02:14;4.00;99.90
14737;DHT22;7459;53.590;10.062;2023-02-28T02:04:50;4.00;99.90
14737;DHT22;7459;53.590;10.062;2023-02-28T02:07:19;4.00;99.90
14737;DHT22;7459;53.590;10.062;2023-02-28T02:09:45;4.00;99.90
14737;DHT22;7459;53.590;10.062;2023-02-28T02:12:27;4.00;99.90
14737;DHT22;7459;53.590;10.062;2023-02-28T02:15:26;4.00;99.90
14737;DHT22;7459;53.590;10.062;2023-02-28T02:18:02;3.90;99.90
14737;DHT22;7459;53.590;10.062;2023-02-28T02:23:33;3.90;99.90
14737;DHT22;7459;53.590;10.062;2023-02-28T02:33:01;3.90;99.90
14737;DHT22;7459;53.590;10.062;2023-02-28T02:35:43;3.90;99.90
14737;DHT22;7459;53.590;10.062;2023-02-28T02:44:08;3.90;99.90
14737;DHT22;7459;53.590;10.062;2023-02-28T02:46:41;3.90;99.90
14737;DHT22;7459;53.590;10.062;2023-02-28T02:49:13;3.80;99.90
14737;DHT22;7459;53.590;10.062;2023-02-28T02:51:42;3.80;99.90
14737;DHT22;7459;53.590;10.062;2023-02-28T02:54:13;3.80;99.90
14737;DHT22;7459;53.590;10.062;2023-02-28T02:56:46;3.80;99.90
14737;DHT22;7459;53.590;10.062;2023-02-28T02:59:15;3.80;99.90
14737;DHT22;7459;53.590;10.062;2023-02-28T03:01:50;3.70;99.90
14737;DHT22;7459;53.590;10.062;2023-02-28T03:06:53;3.60;99.90
14737;DHT22;7459;53.590;10.062;2023-02-28T03:09:22;3.50;99.90
14737;DHT22;7459;53.590;10.062;2023-02-28T03:11:49;3.50;99.90
14737;DHT22;7459;53.590;10.062;2023-02-28T03:14:43;3.50;99.90
14737;DHT22;7459;53.590;10.062;2023-02-28T03:17:24;3.50;99.90
14737;DHT22;7459;53.590;10.062;2023-02-28T03:22:52;3.30;99.90
14737;DHT22;7459;53.590;10.062;2023-02-28T03:25:56;3.30;99.90
14737;DHT22;7459;53.590;10.062;2023-02-28T03:28:32;3.30;99.90
14737;DHT22;7459;53.590;10.062;2023-02-28T03:31:17;3.30;99.90
14737;DHT22;7459;53.590;10.062;2023-02-28T03:34:19;3.20;99.90
14737;DHT22;7459;53.590;10.062;2023-02-28T03:37:13;3.20;99.90
14737;DHT22;7459;53.590;10.062;2023-02-28T03:39:47;3.20;99.90
14737;DHT22;7459;53.590;10.062;2023-02-28T03:42:19;3.20;99.90
14737;DHT22;7459;53.590;10.062;2023-02-28T03:44:53;3.10;99.90
14737;DHT22;7459;53.590;10.062;2023-02-28T03:47:29;3.20;99.90
14737;DHT22;7459;53.590;10.062;2023-02-28T03:50:10;3.20;99.90
14737;DHT22;7459;53.590;10.062;2023-02-28T03:52:48;3.10;99.90
14737;DHT22;7459;53.590;10.062;2023-02-28T03:55:16;3.10;99.90
14737;DHT22;7459;53.590;10.062;2023-02-28T04:00:34;3.00;99.90
14737;DHT22;7459;53.590;10.062;2023-02-28T04:03:03;3.00;99.90
14737;DHT22;7459;53.590;10.062;2023-02-28T04:05:29;2.90;99.90
14737;DHT22;7459;53.590;10.062;2023-02-28T04:08:07;2.90;99.90
14737;DHT22;7459;53.590;10.062;2023-02-28T04:10:33;2.90;99.90
14737;DHT22;7459;53.590;10.062;2023-02-28T04:12:59;2.90;99.90
14737;DHT22;7459;53.590;10.062;2023-02-28T04:15:24;2.80;99.90
14737;DHT22;7459;53.590;10.062;2023-02-28T04:17:52;2.80;99.90
14737;DHT22;7459;53.590;10.062;2023-02-28T04:20:18;2.80;99.90
14737;DHT22;7459;53.590;10.062;2023-02-28T04:22:44;2.80;99.90
14737;DHT22;7459;53.590;10.062;2023-02-28T04:25:09;2.70;99.90
14737;DHT22;7459;53.590;10.062;2023-02-28T04:27:35;2.70;99.90
14737;DHT22;7459;53.590;10.062;2023-02-28T04:30:01;2.60;99.90
14737;DHT22;7459;53.590;10.062;2023-02-28T04:32:27;2.60;99.90
14737;DHT22;7459;53.590;10.062;2023-02-28T04:34:52;2.60;99.90
14737;DHT22;7459;53.590;10.062;2023-02-28T04:37:18;2.50;99.90
14737;DHT22;7459;53.590;10.062;2023-02-28T04:39:44;2.50;99.90
14737;DHT22;7459;53.590;10.062;2023-02-28T04:42:10;2.40;99.90
14737;DHT22;7459;53.590;10.062;2023-02-28T04:44:36;2.40;99.90
14737;DHT22;7459;53.590;10.062;2023-02-28T04:47:02;2.40;99.90
14737;DHT22;7459;53.590;10.062;2023-02-28T04:49:28;2.40;99.90
14737;DHT22;7459;53.590;10.062;2023-02-28T04:51:54;2.40;99.90
14737;DHT22;7459;53.590;10.062;2023-02-28T04:54:20;2.40;99.90
14737;DHT22;7459;53.590;10.062;2023-02-28T04:56:45;2.30;99.90
14737;DHT22;7459;53.590;10.062;2023-02-28T04:59:11;2.30;99.90
14737;DHT22;7459;53.590;10.062;2023-02-28T05:01:37;2.30;99.90
14737;DHT22;7459;53.590;10.062;2023-02-28T05:04:03;2.30;99.90
14737;DHT22;7459;53.590;10.062;2023-02-28T05:06:33;2.30;99.90
14737;DHT22;7459;53.590;10.062;2023-02-28T05:09:05;2.30;99.90
14737;DHT22;7459;53.590;10.062;2023-02-28T05:11:33;2.30;99.90
14737;DHT22;7459;53.590;10.062;2023-02-28T05:14:12;2.20;99.90
14737;DHT22;7459;53.590;10.062;2023-02-28T05:16:38;2.20;99.90
14737;DHT22;7459;53.590;10.062;2023-02-28T05:19:04;2.10;99.90
14737;DHT22;7459;53.590;10.062;2023-02-28T05:21:35;2.10;99.90
14737;DHT22;7459;53.590;10.062;2023-02-28T05:24:20;2.20;99.90
14737;DHT22;7459;53.590;10.062;2023-02-28T05:26:49;2.20;99.90
14737;DHT22;7459;53.590;10.062;2023-02-28T05:29:16;2.20;99.90
14737;DHT22;7459;53.590;10.062;2023-02-28T05:31:42;2.20;99.90
14737;DHT22;7459;53.590;10.062;2023-02-28T05:34:08;2.10;99.90
14737;DHT22;7459;53.590;10.062;2023-02-28T05:36:37;2.10;99.90
14737;DHT22;7459;53.590;10.062;2023-02-28T05:39:03;2.10;99.90
14737;DHT22;7459;53.590;10.062;2023-02-28T05:41:28;2.10;99.90
14737;DHT22;7459;53.590;10.062;2023-02-28T05:43:54;2.00;99.90
14737;DHT22;7459;53.590;10.062;2023-02-28T05:46:20;2.00;99.90
14737;DHT22;7459;53.590;10.062;2023-02-28T05:48:47;2.00;99.90
14737;DHT22;7459;53.590;10.062;2023-02-28T05:51:13;2.00;99.90
14737;DHT22;7459;53.590;10.062;2023-02-28T05:53:39;2.00;99.90
14737;DHT22;7459;53.590;10.062;2023-02-28T05:56:05;2.00;99.90
14737;DHT22;7459;53.590;10.062;2023-02-28T05:58:31;2.00;99.90
14737;DHT22;7459;53.590;10.062;2023-02-28T06:00:58;2.00;99.90
14737;DHT22;7459;53.590;10.062;2023-02-28T06:03:24;2.00;99.90
14737;DHT22;7459;53.590;10.062;2023-02-28T06:05:50;2.00;99.90
14737;DHT22;7459;53.590;10.062;2023-02-28T06:08:16;1.90;99.90
14737;DHT22;7459;53.590;10.062;2023-02-28T06:10:41;1.90;99.90
14737;DHT22;7459;53.590;10.062;2023-02-28T06:13:07;1.90;99.90
14737;DHT22;7459;53.590;10.062;2023-02-28T06:15:33;1.90;99.90
14737;DHT22;7459;53.590;10.062;2023-02-28T06:17:59;1.90;99.90
14737;DHT22;7459;53.590;10.062;2023-02-28T06:20:26;1.90;99.90
14737;DHT22;7459;53.590;10.062;2023-02-28T06:22:58;1.90;99.90
14737;DHT22;7459;53.590;10.062;2023-02-28T06:25:25;1.90;99.90
14737;DHT22;7459;53.590;10.062;2023-02-28T06:27:51;1.90;99.90
14737;DHT22;7459;53.590;10.062;2023-02-28T06:30:17;1.90;99.90
14737;DHT22;7459;53.590;10.062;2023-02-28T06:32:43;1.90;99.90
14737;DHT22;7459;53.590;10.062;2023-02-28T06:35:09;1.80;99.90
14737;DHT22;7459;53.590;10.062;2023-02-28T06:37:35;1.80;99.90
14737;DHT22;7459;53.590;10.062;2023-02-28T06:40:01;1.70;99.90
14737;DHT22;7459;53.590;10.062;2023-02-28T06:42:28;1.80;99.90
14737;DHT22;7459;53.590;10.062;2023-02-28T06:44:56;1.80;99.90
14737;DHT22;7459;53.590;10.062;2023-02-28T06:47:22;1.80;99.90
14737;DHT22;7459;53.590;10.062;2023-02-28T06:49:48;1.80;99.90
14737;DHT22;7459;53.590;10.062;2023-02-28T06:52:14;1.80;99.90
14737;DHT22;7459;53.590;10.062;2023-02-28T06:54:39;1.80;99.90
14737;DHT22;7459;53.590;10.062;2023-02-28T06:57:05;1.90;99.90
14737;DHT22;7459;53.590;10.062;2023-02-28T06:59:31;1.90;99.90
14737;DHT22;7459;53.590;10.062;2023-02-28T07:01:57;2.00;99.90
14737;DHT22;7459;53.590;10.062;2023-02-28T07:04:22;2.00;99.90
14737;DHT22;7459;53.590;10.062;2023-02-28T07:06:48;2.00;99.90
14737;DHT22;7459;53.590;10.062;2023-02-28T07:09:14;2.10;99.90
14737;DHT22;7459;53.590;10.062;2023-02-28T07:11:40;2.20;99.90
14737;DHT22;7459;53.590;10.062;2023-02-28T07:14:08;2.30;99.90
14737;DHT22;7459;53.590;10.062;2023-02-28T07:16:33;2.30;99.90
14737;DHT22;7459;53.590;10.062;2023-02-28T07:18:59;2.30;99.90
14737;DHT22;7459;53.590;10.062;2023-02-28T07:21:25;2.30;99.90
14737;DHT22;7459;53.590;10.062;2023-02-28T07:23:51;2.40;99.90
14737;DHT22;7459;53.590;10.062;2023-02-28T07:26:18;2.40;99.90
14737;DHT22;7459;53.590;10.062;2023-02-28T07:28:46;2.50;99.90
14737;DHT22;7459;53.590;10.062;2023-02-28T07:31:13;2.60;99.90
14737;DHT22;7459;53.590;10.062;2023-02-28T07:33:39;2.60;99.90
14737;DHT22;7459;53.590;10.062;2023-02-28T07:36:10;2.70;99.90
14737;DHT22;7459;53.590;10.062;2023-02-28T07:38:44;2.70;99.90
14737;DHT22;7459;53.590;10.062;2023-02-28T07:41:13;2.80;99.90
14737;DHT22;7459;53.590;10.062;2023-02-28T07:43:41;2.90;99.90
14737;DHT22;7459;53.590;10.062;2023-02-28T07:46:12;2.90;99.90
14737;DHT22;7459;53.590;10.062;2023-02-28T07:48:40;2.90;99.90
14737;DHT22;7459;53.590;10.062;2023-02-28T07:51:06;3.00;99.90
14737;DHT22;7459;53.590;10.062;2023-02-28T07:53:32;3.00;99.90
14737;DHT22;7459;53.590;10.062;2023-02-28T07:56:00;3.10;99.90
14737;DHT22;7459;53.590;10.062;2023-02-28T07:58:27;3.10;99.90
14737;DHT22;7459;53.590;10.062;2023-02-28T08:00:54;3.20;99.90
14737;DHT22;7459;53.590;10.062;2023-02-28T08:03:22;3.20;99.90
14737;DHT22;7459;53.590;10.062;2023-02-28T08:05:48;3.30;99.90
14737;DHT22;7459;53.590;10.062;2023-02-28T08:08:15;3.30;99.90
14737;DHT22;7459;53.590;10.062;2023-02-28T08:10:42;3.30;99.90
14737;DHT22;7459;53.590;10.062;2023-02-28T08:13:08;3.40;99.90
14737;DHT22;7459;53.590;10.062;2023-02-28T08:15:34;3.40;99.90
14737;DHT22;7459;53.590;10.062;2023-02-28T08:17:59;3.50;99.90
14737;DHT22;7459;53.590;10.062;2023-02-28T08:20:26;3.50;99.90
14737;DHT22;7459;53.590;10.062;2023-02-28T08:22:52;3.60;99.90
14737;DHT22;7459;53.590;10.062;2023-02-28T08:25:18;3.60;99.90
14737;DHT22;7459;53.590;10.062;2023-02-28T08:27:44;3.70;99.90
14737;DHT22;7459;53.590;10.062;2023-02-28T08:33:41;3.80;99.90
14737;DHT22;7459;53.590;10.062;2023-02-28T08:36:08;3.90;99.90
14737;DHT22;7459;53.590;10.062;2023-02-28T08:38:35;4.00;99.90
14737;DHT22;7459;53.590;10.062;2023-02-28T08:41:04;4.00;99.90
14737;DHT22;7459;53.590;10.062;2023-02-28T08:43:33;4.00;99.90
14737;DHT22;7459;53.590;10.062;2023-02-28T08:45:59;4.00;99.90
14737;DHT22;7459;53.590;10.062;2023-02-28T08:48:26;4.10;99.90
14737;DHT22;7459;53.590;10.062;2023-02-28T08:51:01;4.10;99.90
14737;DHT22;7459;53.590;10.062;2023-02-28T08:53:35;4.20;99.90
14737;DHT22;7459;53.590;10.062;2023-02-28T08:56:10;4.30;99.90
14737;DHT22;7459;53.590;10.062;2023-02-28T08:58:37;4.30;99.90
14737;DHT22;7459;53.590;10.062;2023-02-28T09:01:14;4.40;99.90
14737;DHT22;7459;53.590;10.062;2023-02-28T09:03:41;4.40;99.90
14737;DHT22;7459;53.590;10.062;2023-02-28T09:06:08;4.50;99.90
14737;DHT22;7459;53.590;10.062;2023-02-28T09:08:35;4.50;99.90
14737;DHT22;7459;53.590;10.062;2023-02-28T09:11:01;4.60;99.90
14737;DHT22;7459;53.590;10.062;2023-02-28T09:13:28;4.60;99.90
14737;DHT22;7459;53.590;10.062;2023-02-28T09:15:56;4.70;99.90
14737;DHT22;7459;53.590;10.062;2023-02-28T09:18:23;4.70;99.90
14737;DHT22;7459;53.590;10.062;2023-02-28T09:20:48;4.80;99.90
14737;DHT22;7459;53.590;10.062;2023-02-28T09:23:15;4.80;99.90
14737;DHT22;7459;53.590;10.062;2023-02-28T09:25:49;4.80;99.90
14737;DHT22;7459;53.590;10.062;2023-02-28T09:28:17;4.80;99.90
14737;DHT22;7459;53.590;10.062;2023-02-28T09:30:48;4.90;99.90
14737;DHT22;7459;53.590;10.062;2023-02-28T09:33:17;4.90;99.90
14737;DHT22;7459;53.590;10.062;2023-02-28T09:35:44;4.90;99.90
14737;DHT22;7459;53.590;10.062;2023-02-28T09:38:10;4.90;99.90
14737;DHT22;7459;53.590;10.062;2023-02-28T09:43:16;4.90;99.90
14737;DHT22;7459;53.590;10.062;2023-02-28T09:46:01;4.90;99.90
14737;DHT22;7459;53.590;10.062;2023-02-28T09:48:38;4.80;99.90
14737;DHT22;7459;53.590;10.062;2023-02-28T09:53:55;4.80;99.90
14737;DHT22;7459;53.590;10.062;2023-02-28T09:56:24;4.90;99.90
14737;DHT22;7459;53.590;10.062;2023-02-28T09:59:04;4.90;99.90
14737;DHT22;7459;53.590;10.062;2023-02-28T10:01:43;4.90;99.90
14737;DHT22;7459;53.590;10.062;2023-02-28T10:04:36;4.90;99.90
14737;DHT22;7459;53.590;10.062;2023-02-28T10:07:43;4.90;99.90
14737;DHT22;7459;53.590;10.062;2023-02-28T10:13:32;5.00;99.90
14737;DHT22;7459;53.590;10.062;2023-02-28T10:16:16;5.10;99.90
14737;DHT22;7459;53.590;10.062;2023-02-28T10:19:02;5.10;99.90
14737;DHT22;7459;53.590;10.062;2023-02-28T10:26:43;5.30;99.90
14737;DHT22;7459;53.590;10.062;2023-02-28T10:29:10;5.40;99.90
14737;DHT22;7459;53.590;10.062;2023-02-28T10:31:36;5.50;99.90
14737;DHT22;7459;53.590;10.062;2023-02-28T10:34:03;5.50;99.90
14737;DHT22;7459;53.590;10.062;2023-02-28T10:36:31;5.60;99.90
14737;DHT22;7459;53.590;10.062;2023-02-28T10:38:57;5.60;99.90
14737;DHT22;7459;53.590;10.062;2023-02-28T10:41:29;5.70;99.90
14737;DHT22;7459;53.590;10.062;2023-02-28T10:44:14;5.80;99.90
14737;DHT22;7459;53.590;10.062;2023-02-28T10:46:43;5.80;99.90
14737;DHT22;7459;53.590;10.062;2023-02-28T10:49:16;5.80;99.90
14737;DHT22;7459;53.590;10.062;2023-02-28T10:51:49;5.90;99.90
14737;DHT22;7459;53.590;10.062;2023-02-28T10:54:24;6.00;99.90
14737;DHT22;7459;53.590;10.062;2023-02-28T10:57:17;6.00;99.90
14737;DHT22;7459;53.590;10.062;2023-02-28T10:59:44;6.00;99.90
14737;DHT22;7459;53.590;10.062;2023-02-28T11:02:33;6.10;99.90
14737;DHT22;7459;53.590;10.062;2023-02-28T11:05:00;6.20;99.90
14737;DHT22;7459;53.590;10.062;2023-02-28T11:07:26;6.30;99.90
14737;DHT22;7459;53.590;10.062;2023-02-28T11:09:55;6.40;99.90
14737;DHT22;7459;53.590;10.062;2023-02-28T11:12:32;6.50;99.90
14737;DHT22;7459;53.590;10.062;2023-02-28T11:15:14;6.60;99.90
14737;DHT22;7459;53.590;10.062;2023-02-28T11:20:27;6.80;99.90
14737;DHT22;7459;53.590;10.062;2023-02-28T11:22:56;6.80;99.90
14737;DHT22;7459;53.590;10.062;2023-02-28T11:25:32;6.90;99.60
14737;DHT22;7459;53.590;10.062;2023-02-28T11:28:02;7.00;99.90
14737;DHT22;7459;53.590;10.062;2023-02-28T11:30:37;7.10;99.90
14737;DHT22;7459;53.590;10.062;2023-02-28T11:33:40;7.20;99.90
14737;DHT22;7459;53.590;10.062;2023-02-28T11:36:14;7.30;99.90
14737;DHT22;7459;53.590;10.062;2023-02-28T11:38:41;7.40;99.90
14737;DHT22;7459;53.590;10.062;2023-02-28T11:44:53;7.60;98.80
14737;DHT22;7459;53.590;10.062;2023-02-28T11:47:38;7.70;98.60
14737;DHT22;7459;53.590;10.062;2023-02-28T11:59:22;8.10;97.20
14737;DHT22;7459;53.590;10.062;2023-02-28T12:25:29;9.00;96.80
14737;DHT22;7459;53.590;10.062;2023-02-28T12:27:57;9.10;95.80
14737;DHT22;7459;53.590;10.062;2023-02-28T12:30:32;9.10;96.30
14737;DHT22;7459;53.590;10.062;2023-02-28T12:33:08;9.20;96.10
14737;DHT22;7459;53.590;10.062;2023-02-28T12:35:41;9.20;95.90
14737;DHT22;7459;53.590;10.062;2023-02-28T12:38:16;9.10;95.10
14737;DHT22;7459;53.590;10.062;2023-02-28T12:43:33;9.20;95.80
14737;DHT22;7459;53.590;10.062;2023-02-28T12:46:16;9.30;95.30
14737;DHT22;7459;53.590;10.062;2023-02-28T12:48:51;9.30;95.30
14737;DHT22;7459;53.590;10.062;2023-02-28T12:51:21;9.40;95.30
14737;DHT22;7459;53.590;10.062;2023-02-28T12:59:40;9.40;92.10
14737;DHT22;7459;53.590;10.062;2023-02-28T13:08:01;9.40;93.90
14737;DHT22;7459;53.590;10.062;2023-02-28T13:10:45;9.40;94.30
14737;DHT22;7459;53.590;10.062;2023-02-28T13:13:18;9.50;94.50
14737;DHT22;7459;53.590;10.062;2023-02-28T13:16:06;9.50;93.80
14737;DHT22;7459;53.590;10.062;2023-02-28T13:21:03;9.40;93.20
14737;DHT22;7459;53.590;10.062;2023-02-28T13:26:09;9.40;93.20
14737;DHT22;7459;53.590;10.062;2023-02-28T13:29:00;9.40;92.80
14737;DHT22;7459;53.590;10.062;2023-02-28T13:31:29;9.40;93.50
14737;DHT22;7459;53.590;10.062;2023-02-28T13:36:30;9.50;93.10
14737;DHT22;7459;53.590;10.062;2023-02-28T13:38:57;9.40;92.60
14737;DHT22;7459;53.590;10.062;2023-02-28T13:44:22;9.60;94.10
14737;DHT22;7459;53.590;10.062;2023-02-28T13:52:02;9.80;93.50
14737;DHT22;7459;53.590;10.062;2023-02-28T13:55:18;9.80;91.60
14737;DHT22;7459;53.590;10.062;2023-02-28T14:01:14;9.70;91.90
14737;DHT22;7459;53.590;10.062;2023-02-28T14:04:16;9.70;91.60
14737;DHT22;7459;53.590;10.062;2023-02-28T14:06:51;9.80;92.50
14737;DHT22;7459;53.590;10.062;2023-02-28T14:11:51;9.90;91.40
14737;DHT22;7459;53.590;10.062;2023-02-28T14:17:03;9.90;91.80
14737;DHT22;7459;53.590;10.062;2023-02-28T14:19:32;10.00;91.70
14737;DHT22;7459;53.590;10.062;2023-02-28T14:22:09;10.10;91.60
14737;DHT22;7459;53.590;10.062;2023-02-28T14:24:59;10.20;92.50
14737;DHT22;7459;53.590;10.062;2023-02-28T14:27:50;10.20;93.10
14737;DHT22;7459;53.590;10.062;2023-02-28T14:30:47;10.30;93.70
14737;DHT22;7459;53.590;10.062;2023-02-28T14:33:22;10.40;93.00
14737;DHT22;7459;53.590;10.062;2023-02-28T14:36:10;10.30;92.50
14737;DHT22;7459;53.590;10.062;2023-02-28T14:41:46;10.40;93.20
14737;DHT22;7459;53.590;10.062;2023-02-28T14:44:26;10.40;92.90
14737;DHT22;7459;53.590;10.062;2023-02-28T14:47:03;10.40;91.40
14737;DHT22;7459;53.590;10.062;2023-02-28T14:49:36;10.40;91.30
14737;DHT22;7459;53.590;10.062;2023-02-28T14:54:47;10.20;91.00
14737;DHT22;7459;53.590;10.062;2023-02-28T14:57:29;10.30;91.50
14737;DHT22;7459;53.590;10.062;2023-02-28T14:59:59;10.30;91.50
14737;DHT22;7459;53.590;10.062;2023-02-28T15:02:29;10.30;90.10
14737;DHT22;7459;53.590;10.062;2023-02-28T15:07:36;10.10;90.10
14737;DHT22;7459;53.590;10.062;2023-02-28T15:10:09;10.10;89.50
14737;DHT22;7459;53.590;10.062;2023-02-28T15:12:59;10.10;90.60
14737;DHT22;7459;53.590;10.062;2023-02-28T15:18:38;10.20;90.10
14737;DHT22;7459;53.590;10.062;2023-02-28T15:21:13;10.20;90.60
14737;DHT22;7459;53.590;10.062;2023-02-28T15:23:44;10.20;90.20
14737;DHT22;7459;53.590;10.062;2023-02-28T15:26:16;10.10;90.00
14737;DHT22;7459;53.590;10.062;2023-02-28T15:28:57;10.10;90.30
14737;DHT22;7459;53.590;10.062;2023-02-28T15:31:31;10.00;90.10
14737;DHT22;7459;53.590;10.062;2023-02-28T15:34:03;9.80;88.70
14737;DHT22;7459;53.590;10.062;2023-02-28T15:36:32;9.70;89.40
14737;DHT22;7459;53.590;10.062;2023-02-28T15:39:03;9.60;90.30
14737;DHT22;7459;53.590;10.062;2023-02-28T15:41:44;9.40;90.70
14737;DHT22;7459;53.590;10.062;2023-02-28T15:44:33;9.30;91.30
14737;DHT22;7459;53.590;10.062;2023-02-28T15:47:05;9.20;91.40
14737;DHT22;7459;53.590;10.062;2023-02-28T15:49:40;9.10;91.70
14737;DHT22;7459;53.590;10.062;2023-02-28T15:52:14;9.00;92.00
14737;DHT22;7459;53.590;10.062;2023-02-28T15:54:43;9.00;92.30
14737;DHT22;7459;53.590;10.062;2023-02-28T15:57:18;8.90;91.30
14737;DHT22;7459;53.590;10.062;2023-02-28T16:00:00;8.70;91.20
14737;DHT22;7459;53.590;10.062;2023-02-28T16:02:35;8.60;91.20
14737;DHT22;7459;53.590;10.062;2023-02-28T16:07:38;8.50;92.10
14737;DHT22;7459;53.590;10.062;2023-02-28T16:10:06;8.40;92.80
14737;DHT22;7459;53.590;10.062;2023-02-28T16:12:37;8.40;92.90
14737;DHT22;7459;53.590;10.062;2023-02-28T16:15:18;8.40;92.60
14737;DHT22;7459;53.590;10.062;2023-02-28T16:17:46;8.30;92.10
14737;DHT22;7459;53.590;10.062;2023-02-28T16:20:18;8.30;92.40
14737;DHT22;7459;53.590;10.062;2023-02-28T16:22:46;8.20;92.60
14737;DHT22;7459;53.590;10.062;2023-02-28T16:25:13;8.20;92.60
14737;DHT22;7459;53.590;10.062;2023-02-28T16:27:40;8.20;93.00
14737;DHT22;7459;53.590;10.062;2023-02-28T16:30:09;8.10;93.10
14737;DHT22;7459;53.590;10.062;2023-02-28T16:32:42;8.10;93.10
14737;DHT22;7459;53.590;10.062;2023-02-28T16:35:12;8.00;92.50
14737;DHT22;7459;53.590;10.062;2023-02-28T16:37:39;8.00;92.60
14737;DHT22;7459;53.590;10.062;2023-02-28T16:40:06;8.00;93.00
14737;DHT22;7459;53.590;10.062;2023-02-28T16:42:34;7.90;92.80
14737;DHT22;7459;53.590;10.062;2023-02-28T16:45:00;7.90;92.90
14737;DHT22;7459;53.590;10.062;2023-02-28T16:47:25;7.80;92.80
14737;DHT22;7459;53.590;10.062;2023-02-28T16:49:52;7.80;92.90
14737;DHT22;7459;53.590;10.062;2023-02-28T16:52:18;7.70;92.90
14737;DHT22;7459;53.590;10.062;2023-02-28T16:54:43;7.70;93.10
14737;DHT22;7459;53.590;10.062;2023-02-28T16:57:20;7.60;93.00
14737;DHT22;7459;53.590;10.062;2023-02-28T16:59:48;7.60;93.10
14737;DHT22;7459;53.590;10.062;2023-02-28T17:02:17;7.60;93.20
14737;DHT22;7459;53.590;10.062;2023-02-28T17:04:47;7.50;93.10
14737;DHT22;7459;53.590;10.062;2023-02-28T17:07:15;7.50;93.10
14737;DHT22;7459;53.590;10.062;2023-02-28T17:09:42;7.40;93.20
14737;DHT22;7459;53.590;10.062;2023-02-28T17:12:09;7.40;93.50
14737;DHT22;7459;53.590;10.062;2023-02-28T17:14:36;7.30;93.60
14737;DHT22;7459;53.590;10.062;2023-02-28T17:17:04;7.30;94.40
14737;DHT22;7459;53.590;10.062;2023-02-28T17:19:30;7.30;94.30
14737;DHT22;7459;53.590;10.062;2023-02-28T17:21:56;7.30;94.90
14737;DHT22;7459;53.590;10.062;2023-02-28T17:24:22;7.20;95.20
14737;DHT22;7459;53.590;10.062;2023-02-28T17:26:47;7.20;95.30
14737;DHT22;7459;53.590;10.062;2023-02-28T17:29:19;7.10;95.50
14737;DHT22;7459;53.590;10.062;2023-02-28T17:31:46;7.10;95.80
14737;DHT22;7459;53.590;10.062;2023-02-28T17:34:12;7.00;96.10
14737;DHT22;7459;53.590;10.062;2023-02-28T17:36:44;7.00;96.10
14737;DHT22;7459;53.590;10.062;2023-02-28T17:39:12;6.90;96.20
14737;DHT22;7459;53.590;10.062;2023-02-28T17:41:45;6.90;96.60
14737;DHT22;7459;53.590;10.062;2023-02-28T17:44:11;6.80;96.20
14737;DHT22;7459;53.590;10.062;2023-02-28T17:46:37;6.70;96.10
14737;DHT22;7459;53.590;10.062;2023-02-28T17:49:03;6.70;96.10
14737;DHT22;7459;53.590;10.062;2023-02-28T17:51:29;6.70;96.30
14737;DHT22;7459;53.590;10.062;2023-02-28T17:53:54;6.60;96.30
14737;DHT22;7459;53.590;10.062;2023-02-28T17:56:22;6.60;96.20
14737;DHT22;7459;53.590;10.062;2023-02-28T17:58:51;6.60;96.60
14737;DHT22;7459;53.590;10.062;2023-02-28T18:01:19;6.60;96.90
14737;DHT22;7459;53.590;10.062;2023-02-28T18:03:46;6.50;96.90
14737;DHT22;7459;53.590;10.062;2023-02-28T18:08:52;6.50;97.30
14737;DHT22;7459;53.590;10.062;2023-02-28T18:11:20;6.40;97.40
14737;DHT22;7459;53.590;10.062;2023-02-28T18:13:48;6.40;97.60
14737;DHT22;7459;53.590;10.062;2023-02-28T18:16:19;6.40;97.40
14737;DHT22;7459;53.590;10.062;2023-02-28T18:18:46;6.40;98.00
14737;DHT22;7459;53.590;10.062;2023-02-28T18:21:13;6.30;97.90
14737;DHT22;7459;53.590;10.062;2023-02-28T18:23:40;6.30;97.70
14737;DHT22;7459;53.590;10.062;2023-02-28T18:26:13;6.20;97.70